createdAt,value
2017-09-18T00:00:45.001Z,1028.45
2017-09-18T00:01:44.993Z,1028.47
2017-09-18T00:02:44.983Z,1028.44
2017-09-18T00:03:44.977Z,1028.44
2017-09-18T00:04:44.970Z,1028.4
2017-09-18T00:05:44.961Z,1028.37
2017-09-18T00:06:44.954Z,1028.34
2017-09-18T00:07:44.946Z,1028.38
2017-09-18T00:08:44.936Z,1028.34
2017-09-18T00:09:44.929Z,1028.31
2017-09-18T00:10:44.921Z,1028.26
2017-09-18T00:11:44.914Z,1028.22
2017-09-18T00:12:44.904Z,1028.21
2017-09-18T00:13:44.896Z,1028.19
2017-09-18T00:14:44.889Z,1028.19
2017-09-18T00:15:44.883Z,1028.2
2017-09-18T00:16:44.874Z,1028.17
2017-09-18T00:17:44.865Z,1028.17
2017-09-18T00:18:44.858Z,1028.14
2017-09-18T00:19:44.849Z,1028.13
2017-09-18T00:20:44.844Z,1028.17
2017-09-18T00:21:44.834Z,1028.15
2017-09-18T00:22:44.826Z,1028.14
2017-09-18T00:23:44.817Z,1028.16
2017-09-18T00:24:44.813Z,1028.19
2017-09-18T00:25:44.801Z,1028.16
2017-09-18T00:26:44.796Z,1028.17
2017-09-18T00:27:44.786Z,1028.16
2017-09-18T00:28:44.778Z,1028.14
2017-09-18T00:29:44.771Z,1028.13
2017-09-18T00:30:44.761Z,1028.14
2017-09-18T00:31:44.756Z,1028.14
2017-09-18T00:32:44.746Z,1028.14
2017-09-18T00:33:44.740Z,1028.09
2017-09-18T00:34:44.731Z,1028.08
2017-09-18T00:35:44.723Z,1028.05
2017-09-18T00:36:44.716Z,1028
2017-09-18T00:37:44.707Z,1028.01
2017-09-18T00:38:44.701Z,1028.04
2017-09-18T00:39:44.698Z,1028.01
2017-09-18T00:40:44.687Z,1027.97
2017-09-18T00:41:44.677Z,1027.97
2017-09-18T00:42:44.670Z,1027.97
2017-09-18T00:43:44.663Z,1027.92
2017-09-18T00:44:44.655Z,1027.96
2017-09-18T00:45:44.646Z,1027.93
2017-09-18T00:46:44.640Z,1027.93
2017-09-18T00:47:44.631Z,1027.93
2017-09-18T00:48:44.622Z,1027.92
2017-09-18T00:49:44.616Z,1027.91
2017-09-18T00:50:44.609Z,1027.9
2017-09-18T00:51:44.600Z,1027.87
2017-09-18T00:52:44.595Z,1027.88
2017-09-18T00:53:44.585Z,1027.91
2017-09-18T00:54:44.577Z,1027.93
2017-09-18T00:55:44.572Z,1027.96
2017-09-18T00:56:44.562Z,1027.95
2017-09-18T00:57:44.553Z,1027.91
2017-09-18T00:58:44.546Z,1027.98
2017-09-18T00:59:44.539Z,1027.92
2017-09-18T01:00:44.531Z,1027.98
2017-09-18T01:01:44.525Z,1027.98
2017-09-18T01:02:44.515Z,1028.01
2017-09-18T01:03:44.507Z,1027.95
2017-09-18T01:04:44.501Z,1027.9
2017-09-18T01:05:44.502Z,1027.88
2017-09-18T01:06:44.485Z,1027.89
2017-09-18T01:07:44.476Z,1027.95
2017-09-18T01:08:44.471Z,1028.01
2017-09-18T01:09:44.462Z,1027.96
2017-09-18T01:10:44.455Z,1027.89
2017-09-18T01:11:44.447Z,1027.87
2017-09-18T01:12:44.446Z,1027.93
2017-09-18T01:13:44.432Z,1027.98
2017-09-18T01:14:44.429Z,1027.96
2017-09-18T01:15:44.416Z,1027.96
2017-09-18T01:16:44.408Z,1027.95
2017-09-18T01:17:44.401Z,1028
2017-09-18T01:18:44.393Z,1028.01
2017-09-18T01:19:44.388Z,1028.01
2017-09-18T01:20:44.379Z,1027.99
2017-09-18T01:21:44.371Z,1028.01
2017-09-18T01:22:44.362Z,1028
2017-09-18T01:23:44.357Z,1027.98
2017-09-18T01:24:44.347Z,1028.01
2017-09-18T01:25:44.340Z,1028
2017-09-18T01:26:44.334Z,1027.98
2017-09-18T01:27:44.325Z,1027.94
2017-09-18T01:28:44.318Z,1027.95
2017-09-18T01:29:44.310Z,1027.94
2017-09-18T01:30:44.303Z,1027.88
2017-09-18T01:31:44.295Z,1027.89
2017-09-18T01:32:44.288Z,1027.93
2017-09-18T01:33:44.306Z,1027.87
2017-09-18T01:34:44.270Z,1027.88
2017-09-18T01:35:44.264Z,1027.88
2017-09-18T01:36:44.261Z,1027.84
2017-09-18T01:37:44.250Z,1027.86
2017-09-18T01:38:44.242Z,1027.88
2017-09-18T01:39:44.234Z,1027.88
2017-09-18T01:40:44.226Z,1027.85
2017-09-18T01:41:44.218Z,1027.87
2017-09-18T01:42:44.212Z,1027.89
2017-09-18T01:43:44.204Z,1027.9
2017-09-18T01:44:44.196Z,1027.88
2017-09-18T01:45:44.188Z,1027.8
2017-09-18T01:46:44.180Z,1027.83
2017-09-18T01:47:44.173Z,1027.85
2017-09-18T01:48:44.165Z,1027.84
2017-09-18T01:49:44.159Z,1027.88
2017-09-18T01:50:44.150Z,1027.91
2017-09-18T01:51:44.143Z,1027.98
2017-09-18T01:52:44.136Z,1028.01
2017-09-18T01:53:44.128Z,1027.98
2017-09-18T01:54:44.120Z,1028
2017-09-18T01:55:44.113Z,1027.99
2017-09-18T01:56:44.106Z,1027.95
2017-09-18T01:57:44.099Z,1028
2017-09-18T01:58:44.091Z,1027.98
2017-09-18T01:59:44.083Z,1028
2017-09-18T02:00:44.076Z,1027.95
2017-09-18T02:01:44.069Z,1027.99
2017-09-18T02:02:44.061Z,1027.93
2017-09-18T02:03:44.053Z,1027.9
2017-09-18T02:04:44.047Z,1027.88
2017-09-18T02:05:44.038Z,1027.89
2017-09-18T02:06:44.032Z,1027.92
2017-09-18T02:07:44.022Z,1027.91
2017-09-18T02:08:44.019Z,1027.87
2017-09-18T02:09:44.008Z,1027.88
2017-09-18T02:10:44.000Z,1027.89
2017-09-18T02:11:43.993Z,1027.85
2017-09-18T02:12:43.985Z,1027.92
2017-09-18T02:13:43.978Z,1027.89
2017-09-18T02:14:43.971Z,1027.89
2017-09-18T02:15:43.965Z,1027.93
2017-09-18T02:16:43.957Z,1027.94
2017-09-18T02:17:43.950Z,1027.99
2017-09-18T02:18:43.942Z,1028
2017-09-18T02:19:43.935Z,1028.01
2017-09-18T02:20:43.927Z,1028.03
2017-09-18T02:21:43.921Z,1028.03
2017-09-18T02:22:43.912Z,1028.06
2017-09-18T02:23:43.904Z,1028.06
2017-09-18T02:24:43.896Z,1028.06
2017-09-18T02:25:43.890Z,1028.09
2017-09-18T02:26:43.882Z,1028.08
2017-09-18T02:27:43.875Z,1028.08
2017-09-18T02:28:43.867Z,1028.12
2017-09-18T02:29:43.858Z,1028.09
2017-09-18T02:30:43.852Z,1028.11
2017-09-18T02:31:43.844Z,1028.16
2017-09-18T02:32:43.837Z,1028.16
2017-09-18T02:33:43.828Z,1028.16
2017-09-18T02:34:43.821Z,1028.2
2017-09-18T02:35:43.818Z,1028.18
2017-09-18T02:36:43.804Z,1028.22
2017-09-18T02:37:43.799Z,1028.24
2017-09-18T02:38:43.791Z,1028.23
2017-09-18T02:39:43.783Z,1028.29
2017-09-18T02:40:43.776Z,1028.34
2017-09-18T02:41:43.768Z,1028.36
2017-09-18T02:42:43.760Z,1028.39
2017-09-18T02:43:43.754Z,1028.46
2017-09-18T02:44:43.745Z,1028.52
2017-09-18T02:45:43.735Z,1028.56
2017-09-18T02:46:43.729Z,1028.57
2017-09-18T02:47:43.724Z,1028.64
2017-09-18T02:48:43.714Z,1028.64
2017-09-18T02:49:43.706Z,1028.66
2017-09-18T02:50:43.698Z,1028.78
2017-09-18T02:51:43.690Z,1028.8
2017-09-18T02:52:43.683Z,1028.79
2017-09-18T02:53:43.675Z,1028.78
2017-09-18T02:54:43.666Z,1028.8
2017-09-18T02:55:43.658Z,1028.85
2017-09-18T02:56:43.650Z,1028.85
2017-09-18T02:57:43.645Z,1028.84
2017-09-18T02:58:43.634Z,1028.92
2017-09-18T02:59:43.627Z,1028.95
2017-09-18T03:00:43.618Z,1028.98
2017-09-18T03:01:43.609Z,1028.99
2017-09-18T03:02:43.604Z,1029
2017-09-18T03:03:43.594Z,1029
2017-09-18T03:04:43.586Z,1029.02
2017-09-18T03:05:43.578Z,1029.08
2017-09-18T03:06:43.570Z,1029.12
2017-09-18T03:07:43.560Z,1029.15
2017-09-18T03:08:43.553Z,1029.21
2017-09-18T03:09:43.548Z,1029.25
2017-09-18T03:10:43.537Z,1029.31
2017-09-18T03:11:43.527Z,1029.33
2017-09-18T03:12:43.520Z,1029.29
2017-09-18T03:13:43.511Z,1029.34
2017-09-18T03:14:43.503Z,1029.35
2017-09-18T03:15:43.493Z,1029.36
2017-09-18T03:16:43.485Z,1029.41
2017-09-18T03:17:43.477Z,1029.43
2017-09-18T03:18:43.469Z,1029.47
2017-09-18T03:19:43.463Z,1029.51
2017-09-18T03:20:43.453Z,1029.57
2017-09-18T03:21:43.444Z,1029.62
2017-09-18T03:22:43.434Z,1029.67
2017-09-18T03:23:43.426Z,1029.7
2017-09-18T03:24:43.416Z,1029.75
2017-09-18T03:25:43.409Z,1029.74
2017-09-18T03:26:43.399Z,1029.78
2017-09-18T03:27:43.391Z,1029.81
2017-09-18T03:28:43.381Z,1029.79
2017-09-18T03:29:43.373Z,1029.83
2017-09-18T03:30:43.365Z,1029.84
2017-09-18T03:31:43.381Z,1029.85
2017-09-18T03:32:43.347Z,1029.88
2017-09-18T03:33:43.337Z,1029.88
2017-09-18T03:34:43.327Z,1029.9
2017-09-18T03:35:43.320Z,1029.89
2017-09-18T03:36:43.310Z,1029.91
2017-09-18T03:37:43.300Z,1029.89
2017-09-18T03:38:43.292Z,1029.93
2017-09-18T03:39:43.285Z,1029.91
2017-09-18T03:40:43.273Z,1029.95
2017-09-18T03:41:43.265Z,1029.95
2017-09-18T03:42:43.256Z,1029.97
2017-09-18T03:43:43.248Z,1030.01
2017-09-18T03:44:43.237Z,1030.01
2017-09-18T03:45:43.229Z,1030.01
2017-09-18T03:46:43.221Z,1030
2017-09-18T03:47:43.210Z,1030.04
2017-09-18T03:48:43.202Z,1030.02
2017-09-18T03:49:43.194Z,1030.01
2017-09-18T03:50:43.184Z,1030.05
2017-09-18T03:51:43.175Z,1030.1
2017-09-18T03:52:43.164Z,1030.13
2017-09-18T03:53:43.156Z,1030.1
2017-09-18T03:54:43.147Z,1030.13
2017-09-18T03:55:43.137Z,1030.16
2017-09-18T03:56:43.127Z,1030.11
2017-09-18T03:57:43.119Z,1030.16
2017-09-18T03:58:43.109Z,1030.14
2017-09-18T03:59:43.101Z,1030.12
2017-09-18T04:00:43.092Z,1030.18
2017-09-18T04:01:43.081Z,1030.16
2017-09-18T04:02:43.072Z,1030.19
2017-09-18T04:03:43.062Z,1030.19
2017-09-18T04:04:43.054Z,1030.13
2017-09-18T04:05:43.046Z,1030.16
2017-09-18T04:06:43.034Z,1030.15
2017-09-18T04:07:43.024Z,1030.15
2017-09-18T04:08:43.016Z,1030.09
2017-09-18T04:09:43.004Z,1030.1
2017-09-18T04:10:42.996Z,1030.1
2017-09-18T04:11:42.987Z,1030.1
2017-09-18T04:12:42.979Z,1030.08
2017-09-18T04:13:42.967Z,1030.12
2017-09-18T04:14:42.958Z,1030.13
2017-09-18T04:15:42.947Z,1030.16
2017-09-18T04:16:42.940Z,1030.23
2017-09-18T04:17:42.930Z,1030.21
2017-09-18T04:18:42.923Z,1030.22
2017-09-18T04:19:42.911Z,1030.26
2017-09-18T04:20:42.900Z,1030.23
2017-09-18T04:21:42.891Z,1030.24
2017-09-18T04:22:42.882Z,1030.25
2017-09-18T04:23:42.873Z,1030.26
2017-09-18T04:24:42.862Z,1030.26
2017-09-18T04:25:42.853Z,1030.26
2017-09-18T04:26:42.845Z,1030.26
2017-09-18T04:27:42.834Z,1030.29
2017-09-18T04:28:42.824Z,1030.31
2017-09-18T04:29:42.815Z,1030.29
2017-09-18T04:30:42.806Z,1030.29
2017-09-18T04:31:42.796Z,1030.3
2017-09-18T04:32:42.786Z,1030.3
2017-09-18T04:33:42.776Z,1030.26
2017-09-18T04:34:42.767Z,1030.29
2017-09-18T04:35:42.757Z,1030.27
2017-09-18T04:36:42.749Z,1030.28
2017-09-18T04:37:42.739Z,1030.26
2017-09-18T04:38:42.730Z,1030.26
2017-09-18T04:39:42.719Z,1030.26
2017-09-18T04:40:42.710Z,1030.26
2017-09-18T04:41:42.702Z,1030.24
2017-09-18T04:42:42.691Z,1030.22
2017-09-18T04:43:42.681Z,1030.26
2017-09-18T04:44:42.673Z,1030.25
2017-09-18T04:45:42.662Z,1030.28
2017-09-18T04:46:42.654Z,1030.27
2017-09-18T04:47:42.642Z,1030.29
2017-09-18T04:48:42.636Z,1030.3
2017-09-18T04:49:42.624Z,1030.35
2017-09-18T04:50:42.614Z,1030.34
2017-09-18T04:51:42.606Z,1030.32
2017-09-18T04:52:42.599Z,1030.35
2017-09-18T04:53:42.588Z,1030.32
2017-09-18T04:54:42.577Z,1030.32
2017-09-18T04:55:42.569Z,1030.32
2017-09-18T04:56:42.558Z,1030.34
2017-09-18T04:57:42.549Z,1030.29
2017-09-18T04:58:42.539Z,1030.26
2017-09-18T04:59:42.529Z,1030.21
2017-09-18T05:00:42.520Z,1030.21
2017-09-18T05:01:42.512Z,1030.16
2017-09-18T05:02:42.502Z,1030.16
2017-09-18T05:03:42.494Z,1030.14
2017-09-18T05:04:42.485Z,1030.13
2017-09-18T05:05:42.474Z,1030.11
2017-09-18T05:06:42.465Z,1030.11
2017-09-18T05:07:42.456Z,1030.11
2017-09-18T05:08:42.447Z,1030.09
2017-09-18T05:09:42.437Z,1030.07
2017-09-18T05:10:42.427Z,1030.04
2017-09-18T05:11:42.419Z,1029.91
2017-09-18T05:12:42.408Z,1029.71
2017-09-18T05:13:42.401Z,1029.6
2017-09-18T05:14:42.390Z,1029.39
2017-09-18T05:15:42.381Z,1029.3
2017-09-18T05:16:42.371Z,1029.17
2017-09-18T05:17:42.362Z,1029.02
2017-09-18T05:18:42.355Z,1028.87
2017-09-18T05:19:42.347Z,1028.76
2017-09-18T05:20:42.336Z,1028.64
2017-09-18T05:21:42.328Z,1028.55
2017-09-18T05:22:42.321Z,1028.46
2017-09-18T05:23:42.312Z,1028.34
2017-09-18T05:24:42.303Z,1028.19
2017-09-18T05:25:42.296Z,1028.1
2017-09-18T05:26:42.287Z,1027.95
2017-09-18T05:27:42.280Z,1027.82
2017-09-18T05:28:42.273Z,1027.71
2017-09-18T05:29:42.270Z,1027.61
2017-09-18T05:30:42.259Z,1027.5
2017-09-18T05:31:42.251Z,1027.42
2017-09-18T05:32:42.244Z,1027.28
2017-09-18T05:33:42.237Z,1027.2
2017-09-18T05:34:42.228Z,1027.1
2017-09-18T05:35:42.222Z,1027
2017-09-18T05:36:42.216Z,1026.9
2017-09-18T05:37:42.210Z,1026.73
2017-09-18T05:38:42.203Z,1026.6
2017-09-18T05:39:42.198Z,1026.44
2017-09-18T05:40:42.192Z,1026.38
2017-09-18T05:41:42.185Z,1026.24
2017-09-18T05:42:42.180Z,1026.16
2017-09-18T05:43:42.175Z,1026.1
2017-09-18T05:44:42.169Z,1026
2017-09-18T05:45:42.164Z,1025.93
2017-09-18T05:46:42.165Z,1025.85
2017-09-18T05:47:42.155Z,1025.75
2017-09-18T05:48:42.148Z,1025.73
2017-09-18T05:49:42.144Z,1025.61
2017-09-18T05:50:42.140Z,1025.51
2017-09-18T05:51:42.136Z,1025.36
2017-09-18T05:52:42.132Z,1025.27
2017-09-18T05:53:42.126Z,1025.18
2017-09-18T05:54:42.122Z,1025.1
2017-09-18T05:55:42.119Z,1024.98
2017-09-18T05:56:42.116Z,1024.9
2017-09-18T05:57:42.110Z,1024.82
2017-09-18T05:58:42.110Z,1024.7
2017-09-18T05:59:42.105Z,1024.63
2017-09-18T06:00:42.103Z,1024.57
2017-09-18T06:01:42.099Z,1024.45
2017-09-18T06:02:42.097Z,1024.3
2017-09-18T06:03:42.092Z,1024.2
2017-09-18T06:04:42.089Z,1024.11
2017-09-18T06:05:42.089Z,1024.02
2017-09-18T06:06:42.084Z,1023.95
2017-09-18T06:07:42.082Z,1023.85
2017-09-18T06:08:42.080Z,1023.82
2017-09-18T06:09:42.078Z,1023.76
2017-09-18T06:10:42.076Z,1023.68
2017-09-18T06:11:42.076Z,1023.61
2017-09-18T06:12:42.075Z,1023.57
2017-09-18T06:13:42.071Z,1023.51
2017-09-18T06:14:42.071Z,1023.44
2017-09-18T06:15:42.069Z,1023.32
2017-09-18T06:16:42.068Z,1023.23
2017-09-18T06:18:42.065Z,1023.02
2017-09-18T06:19:42.065Z,1022.95
2017-09-18T06:20:42.064Z,1022.88
2017-09-18T06:21:42.065Z,1022.78
2017-09-18T06:22:42.061Z,1022.71
2017-09-18T06:23:42.063Z,1022.67
2017-09-18T06:24:42.064Z,1022.59
2017-09-18T06:25:42.062Z,1022.56
2017-09-18T06:26:42.063Z,1022.56
2017-09-18T06:27:42.063Z,1022.51
2017-09-18T06:28:42.061Z,1022.46
2017-09-18T06:29:42.063Z,1022.39
2017-09-18T06:30:42.062Z,1022.34
2017-09-18T06:31:42.064Z,1022.28
2017-09-18T06:32:42.063Z,1022.23
2017-09-18T06:33:42.066Z,1022.2
2017-09-18T06:34:42.067Z,1022.15
2017-09-18T06:35:42.068Z,1022.16
2017-09-18T06:36:42.069Z,1022.12
2017-09-18T06:37:42.070Z,1022.08
2017-09-18T06:38:42.072Z,1021.98
2017-09-18T06:39:42.073Z,1021.86
2017-09-18T06:40:42.075Z,1021.82
2017-09-18T06:41:42.076Z,1021.68
2017-09-18T06:42:42.079Z,1021.69
2017-09-18T06:43:42.081Z,1021.66
2017-09-18T06:44:42.082Z,1021.62
2017-09-18T06:45:42.085Z,1021.62
2017-09-18T06:46:42.089Z,1021.6
2017-09-18T06:47:42.090Z,1021.67
2017-09-18T06:48:42.091Z,1021.59
2017-09-18T06:49:42.096Z,1021.56
2017-09-18T06:50:42.098Z,1021.47
2017-09-18T06:51:42.131Z,1021.45
2017-09-18T06:52:42.104Z,1021.47
2017-09-18T06:53:42.109Z,1021.43
2017-09-18T06:54:42.111Z,1021.36
2017-09-18T06:55:42.114Z,1021.38
2017-09-18T06:56:42.117Z,1021.31
2017-09-18T06:57:42.122Z,1021.26
2017-09-18T06:58:42.127Z,1021.29
2017-09-18T06:59:42.138Z,1021.27
2017-09-18T07:00:42.134Z,1021.23
2017-09-18T07:01:42.138Z,1021.26
2017-09-18T07:02:42.146Z,1021.22
2017-09-18T07:03:42.148Z,1021.13
2017-09-18T07:04:42.151Z,1021.05
2017-09-18T07:05:42.158Z,1021.03
2017-09-18T07:06:42.161Z,1020.94
2017-09-18T07:07:42.166Z,1020.87
2017-09-18T07:08:42.171Z,1020.8
2017-09-18T07:09:42.176Z,1020.74
2017-09-18T07:10:42.181Z,1020.68
2017-09-18T07:11:42.189Z,1020.65
2017-09-18T07:12:42.193Z,1020.55
2017-09-18T07:13:42.200Z,1020.49
2017-09-18T07:14:42.207Z,1020.43
2017-09-18T07:15:42.212Z,1020.49
2017-09-18T07:16:42.216Z,1020.4
2017-09-18T07:17:42.224Z,1020.29
2017-09-18T07:18:42.233Z,1020.26
2017-09-18T07:19:42.234Z,1020.2
2017-09-18T07:20:42.246Z,1020.18
2017-09-18T07:21:42.250Z,1020.19
2017-09-18T07:22:42.256Z,1020.14
2017-09-18T07:23:42.262Z,1020.08
2017-09-18T07:24:42.276Z,1020.1
2017-09-18T07:25:42.277Z,1020.13
2017-09-18T07:26:42.284Z,1020.27
2017-09-18T07:27:42.291Z,1020.36
2017-09-18T07:28:42.299Z,1020.4
2017-09-18T07:29:42.307Z,1020.46
2017-09-18T07:30:42.313Z,1020.4
2017-09-18T07:31:42.321Z,1020.41
2017-09-18T07:32:42.328Z,1020.49
2017-09-18T07:33:42.335Z,1020.68
2017-09-18T07:34:42.341Z,1020.84
2017-09-18T07:35:42.350Z,1020.99
2017-09-18T07:36:42.359Z,1021.06
2017-09-18T07:37:42.364Z,1021.23
2017-09-18T07:38:42.371Z,1021.4
2017-09-18T07:39:42.377Z,1021.52
2017-09-18T07:40:42.385Z,1021.63
2017-09-18T07:41:42.391Z,1021.69
2017-09-18T07:42:42.398Z,1021.76
2017-09-18T07:43:42.405Z,1021.82
2017-09-18T07:44:42.412Z,1021.83
2017-09-18T07:45:42.418Z,1021.81
2017-09-18T07:46:42.426Z,1021.8
2017-09-18T07:47:42.431Z,1021.8
2017-09-18T07:48:42.437Z,1021.82
2017-09-18T07:49:42.444Z,1021.79
2017-09-18T07:50:42.450Z,1021.84
2017-09-18T07:51:42.456Z,1021.83
2017-09-18T07:52:42.461Z,1021.82
2017-09-18T07:53:42.466Z,1021.84
2017-09-18T07:54:42.473Z,1021.89
2017-09-18T07:55:42.479Z,1021.94
2017-09-18T07:56:42.485Z,1021.98
2017-09-18T07:57:42.490Z,1021.9
2017-09-18T07:58:42.497Z,1021.89
2017-09-18T07:59:42.503Z,1021.92
2017-09-18T08:00:42.507Z,1022.09
2017-09-18T08:01:42.512Z,1022.47
2017-09-18T08:02:42.519Z,1023.09
2017-09-18T08:03:42.524Z,1023.63
2017-09-18T08:04:42.529Z,1024.01
2017-09-18T08:05:42.532Z,1024.38
2017-09-18T08:06:42.537Z,1024.71
2017-09-18T08:07:42.540Z,1025.02
2017-09-18T08:08:42.544Z,1025.28
2017-09-18T08:09:42.547Z,1025.59
2017-09-18T08:10:42.550Z,1025.84
2017-09-18T08:11:42.552Z,1026.04
2017-09-18T08:12:42.554Z,1026.23
2017-09-18T08:13:42.555Z,1026.39
2017-09-18T08:14:42.557Z,1026.56
2017-09-18T08:15:42.558Z,1026.76
2017-09-18T08:16:42.559Z,1026.88
2017-09-18T08:17:42.559Z,1027.03
2017-09-18T08:18:42.557Z,1027.15
2017-09-18T08:19:42.559Z,1027.29
2017-09-18T08:20:42.559Z,1027.34
2017-09-18T08:21:42.558Z,1027.43
2017-09-18T08:22:42.556Z,1027.53
2017-09-18T08:23:42.555Z,1027.53
2017-09-18T08:24:42.554Z,1027.62
2017-09-18T08:25:42.553Z,1027.7
2017-09-18T08:26:42.550Z,1027.77
2017-09-18T08:27:42.548Z,1027.81
2017-09-18T08:28:42.552Z,1027.86
2017-09-18T08:29:42.544Z,1027.91
2017-09-18T08:30:42.541Z,1027.93
2017-09-18T08:31:42.540Z,1027.97
2017-09-18T08:32:42.537Z,1028
2017-09-18T08:33:42.534Z,1028.06
2017-09-18T08:34:42.533Z,1028.13
2017-09-18T08:35:42.529Z,1028.1
2017-09-18T08:36:42.526Z,1028.24
2017-09-18T08:37:42.526Z,1028.25
2017-09-18T08:38:42.521Z,1028.24
2017-09-18T08:39:42.518Z,1028.21
2017-09-18T08:40:42.513Z,1028.26
2017-09-18T08:41:42.514Z,1028.29
2017-09-18T08:42:42.510Z,1028.31
2017-09-18T08:43:42.504Z,1028.32
2017-09-18T08:44:42.501Z,1028.3
2017-09-18T08:45:42.498Z,1028.33
2017-09-18T08:46:42.495Z,1028.3
2017-09-18T08:47:42.490Z,1028.36
2017-09-18T08:48:42.487Z,1028.43
2017-09-18T08:49:42.484Z,1028.41
2017-09-18T08:50:42.480Z,1028.4
2017-09-18T08:51:42.474Z,1028.46
2017-09-18T08:52:42.473Z,1028.39
2017-09-18T08:53:42.470Z,1028.36
2017-09-18T08:54:42.464Z,1028.41
2017-09-18T08:55:42.459Z,1028.41
2017-09-18T08:56:42.476Z,1028.41
2017-09-18T08:57:42.452Z,1028.43
2017-09-18T08:58:42.450Z,1028.41
2017-09-18T08:59:42.445Z,1028.43
2017-09-18T09:00:42.441Z,1028.43
2017-09-18T09:01:42.437Z,1028.45
2017-09-18T09:02:42.433Z,1028.46
2017-09-18T09:03:42.437Z,1028.5
2017-09-18T09:04:42.425Z,1028.46
2017-09-18T09:05:42.421Z,1028.51
2017-09-18T09:06:42.415Z,1028.5
2017-09-18T09:07:42.413Z,1028.5
2017-09-18T09:08:42.409Z,1028.52
2017-09-18T09:09:42.405Z,1028.53
2017-09-18T09:10:42.431Z,1028.56
2017-09-18T09:11:42.397Z,1028.51
2017-09-18T09:12:42.392Z,1028.55
2017-09-18T09:13:42.387Z,1028.54
2017-09-18T09:14:42.385Z,1028.55
2017-09-18T09:15:42.380Z,1028.5
2017-09-18T09:16:42.375Z,1028.56
2017-09-18T09:17:42.372Z,1028.58
2017-09-18T09:18:42.367Z,1028.57
2017-09-18T09:19:42.365Z,1028.57
2017-09-18T09:20:42.358Z,1028.53
2017-09-18T09:21:42.357Z,1028.54
2017-09-18T09:22:42.361Z,1028.54
2017-09-18T09:23:42.347Z,1028.53
2017-09-18T09:24:42.342Z,1028.49
2017-09-18T09:25:42.337Z,1028.51
2017-09-18T09:26:42.334Z,1028.51
2017-09-18T09:27:42.328Z,1028.5
2017-09-18T09:28:42.325Z,1028.49
2017-09-18T09:29:42.320Z,1028.44
2017-09-18T09:30:42.319Z,1028.44
2017-09-18T09:31:42.314Z,1028.47
2017-09-18T09:32:42.307Z,1028.41
2017-09-18T09:33:42.305Z,1028.4
2017-09-18T09:34:42.302Z,1028.37
2017-09-18T09:35:42.296Z,1028.38
2017-09-18T09:36:42.294Z,1028.37
2017-09-18T09:37:42.290Z,1028.28
2017-09-18T09:38:42.282Z,1028.25
2017-09-18T09:39:42.281Z,1028.31
2017-09-18T09:40:42.276Z,1028.3
2017-09-18T09:41:42.272Z,1028.34
2017-09-18T09:42:42.266Z,1028.32
2017-09-18T09:43:42.264Z,1028.31
2017-09-18T09:44:42.260Z,1028.35
2017-09-18T09:45:42.255Z,1028.28
2017-09-18T09:46:42.251Z,1028.26
2017-09-18T09:47:42.248Z,1028.24
2017-09-18T09:48:42.243Z,1028.23
2017-09-18T09:49:42.239Z,1028.23
2017-09-18T09:50:42.237Z,1028.22
2017-09-18T09:51:42.232Z,1028.25
2017-09-18T09:52:42.228Z,1028.19
2017-09-18T09:53:42.224Z,1028.2
2017-09-18T09:54:42.219Z,1028.21
2017-09-18T09:55:42.217Z,1028.2
2017-09-18T09:56:42.213Z,1028.19
2017-09-18T09:57:42.209Z,1028.13
2017-09-18T09:58:42.204Z,1028.1
2017-09-18T09:59:42.202Z,1028.05
2017-09-18T10:00:42.197Z,1028
2017-09-18T10:01:42.194Z,1027.93
2017-09-18T10:02:42.189Z,1027.89
2017-09-18T10:03:42.186Z,1027.86
2017-09-18T10:04:42.182Z,1027.86
2017-09-18T10:05:42.177Z,1027.87
2017-09-18T10:06:42.175Z,1027.85
2017-09-18T10:07:42.173Z,1027.86
2017-09-18T10:08:42.168Z,1027.85
2017-09-18T10:09:42.164Z,1027.89
2017-09-18T10:10:42.163Z,1027.84
2017-09-18T10:11:42.157Z,1027.87
2017-09-18T10:12:42.154Z,1027.9
2017-09-18T10:13:42.151Z,1027.9
2017-09-18T10:14:42.147Z,1027.91
2017-09-18T10:15:42.142Z,1027.92
2017-09-18T10:16:42.140Z,1027.94
2017-09-18T10:17:42.139Z,1027.92
2017-09-18T10:18:42.132Z,1027.91
2017-09-18T10:19:42.129Z,1027.85
2017-09-18T10:20:42.126Z,1027.8
2017-09-18T10:21:42.122Z,1027.8
2017-09-18T10:22:42.119Z,1027.73
2017-09-18T10:23:42.115Z,1027.72
2017-09-18T10:24:42.112Z,1027.68
2017-09-18T10:25:42.109Z,1027.68
2017-09-18T10:26:42.105Z,1027.64
2017-09-18T10:27:42.104Z,1027.6
2017-09-18T10:28:42.100Z,1027.52
2017-09-18T10:29:42.095Z,1027.4
2017-09-18T10:30:42.092Z,1027.21
2017-09-18T10:31:42.089Z,1027.17
2017-09-18T10:32:42.086Z,1027.16
2017-09-18T10:33:42.083Z,1027.03
2017-09-18T10:34:42.083Z,1026.9
2017-09-18T10:35:42.076Z,1026.9
2017-09-18T10:36:42.074Z,1026.96
2017-09-18T10:37:42.070Z,1026.86
2017-09-18T10:38:42.067Z,1026.92
2017-09-18T10:39:42.067Z,1026.94
2017-09-18T10:40:42.061Z,1026.95
2017-09-18T10:41:42.059Z,1026.92
2017-09-18T10:42:42.058Z,1026.81
2017-09-18T10:43:42.054Z,1026.8
2017-09-18T10:44:42.051Z,1026.8
2017-09-18T10:45:42.048Z,1026.83
2017-09-18T10:46:42.046Z,1026.76
2017-09-18T10:47:42.044Z,1026.76
2017-09-18T10:48:42.041Z,1026.77
2017-09-18T10:49:42.040Z,1026.72
2017-09-18T10:50:42.037Z,1026.77
2017-09-18T10:51:42.035Z,1026.72
2017-09-18T10:52:42.031Z,1026.71
2017-09-18T10:53:42.030Z,1026.7
2017-09-18T10:54:42.028Z,1026.59
2017-09-18T10:55:42.025Z,1026.58
2017-09-18T10:56:42.022Z,1026.58
2017-09-18T10:57:42.022Z,1026.55
2017-09-18T10:58:42.018Z,1026.58
2017-09-18T10:59:42.017Z,1026.65
2017-09-18T11:00:42.016Z,1026.65
2017-09-18T11:01:42.013Z,1026.62
2017-09-18T11:02:42.011Z,1026.61
2017-09-18T11:03:42.009Z,1026.62
2017-09-18T11:04:42.008Z,1026.57
2017-09-18T11:05:42.006Z,1026.56
2017-09-18T11:06:42.004Z,1026.59
2017-09-18T11:07:42.003Z,1026.6
2017-09-18T11:08:42.001Z,1026.58
2017-09-18T11:09:41.998Z,1026.6
2017-09-18T11:10:41.997Z,1026.61
2017-09-18T11:11:41.995Z,1026.57
2017-09-18T11:12:41.993Z,1026.58
2017-09-18T11:13:41.993Z,1026.56
2017-09-18T11:14:41.990Z,1026.57
2017-09-18T11:15:41.989Z,1026.61
2017-09-18T11:16:41.988Z,1026.68
2017-09-18T11:17:41.984Z,1026.75
2017-09-18T11:18:41.982Z,1026.75
2017-09-18T11:19:41.982Z,1026.78
2017-09-18T11:20:41.980Z,1026.78
2017-09-18T11:21:41.978Z,1026.75
2017-09-18T11:22:41.977Z,1026.74
2017-09-18T11:23:41.975Z,1026.74
2017-09-18T11:24:41.972Z,1026.73
2017-09-18T11:25:41.970Z,1026.71
2017-09-18T11:26:41.970Z,1026.7
2017-09-18T11:27:41.968Z,1026.71
2017-09-18T11:28:41.966Z,1026.7
2017-09-18T11:29:41.964Z,1026.65
2017-09-18T11:30:41.962Z,1026.61
2017-09-18T11:31:41.960Z,1026.63
2017-09-18T11:32:41.959Z,1026.6
2017-09-18T11:33:41.956Z,1026.58
2017-09-18T11:34:41.956Z,1026.53
2017-09-18T11:35:41.953Z,1026.46
2017-09-18T11:36:41.952Z,1026.41
2017-09-18T11:37:41.949Z,1026.39
2017-09-18T11:38:41.951Z,1026.26
2017-09-18T11:39:41.945Z,1026.16
2017-09-18T11:40:41.945Z,1026.14
2017-09-18T11:41:41.946Z,1026.1
2017-09-18T11:42:41.942Z,1026.03
2017-09-18T11:43:41.940Z,1025.92
2017-09-18T11:44:41.939Z,1025.8
2017-09-18T11:45:41.938Z,1025.71
2017-09-18T11:46:41.936Z,1025.61
2017-09-18T11:47:41.935Z,1025.58
2017-09-18T11:48:41.933Z,1025.61
2017-09-18T11:49:41.932Z,1025.71
2017-09-18T11:50:41.930Z,1025.74
2017-09-18T11:51:41.929Z,1025.88
2017-09-18T11:52:41.927Z,1025.96
2017-09-18T11:53:41.926Z,1025.98
2017-09-18T11:54:41.926Z,1025.99
2017-09-18T11:55:41.924Z,1025.95
2017-09-18T11:56:41.924Z,1025.99
2017-09-18T11:57:41.922Z,1026.01
2017-09-18T11:58:41.921Z,1026.08
2017-09-18T11:59:41.919Z,1026.08
2017-09-18T12:00:41.945Z,1026.09
2017-09-18T12:01:41.916Z,1026.13
2017-09-18T12:02:41.916Z,1026.14
2017-09-18T12:03:41.915Z,1026.08
2017-09-18T12:04:41.914Z,1026.06
2017-09-18T12:05:41.911Z,1026.01
2017-09-18T12:06:41.912Z,1025.96
2017-09-18T12:07:41.909Z,1025.91
2017-09-18T12:08:41.908Z,1025.84
2017-09-18T12:09:41.908Z,1025.7
2017-09-18T12:10:41.907Z,1025.62